Time;durP1;ratioP1;P1;durP2;ratioP2;P2;SDS_P1;SDS_P2;PMS_P1;PMS_P2;Temp;Humidity;BMP_temperature;BMP_pressure;BME280_temperature;BME280_humidity;BME280_pressure;Samples;Min_cycle;Max_cycle;Signal;HPM_P1;HPM_P2
2023/02/10 00:01:37;;;;;;;46.23;23.80;;;-4.30;99.90;;;;;;5025321;28;20036;-82
2023/02/10 00:04:03;;;;;;;48.53;24.63;;;-4.20;99.90;;;;;;5024738;28;21260;-82
2023/02/10 00:06:28;;;;;;;46.90;23.50;;;-4.20;99.90;;;;;;5025048;28;20029;-82
2023/02/10 00:08:57;;;;;;;46.53;23.97;;;-4.20;99.90;;;;;;5025746;28;20432;-82
2023/02/10 00:11:56;;;;;;;43.40;22.30;;;-4.20;99.90;;;;;;5025886;28;20381;-82
2023/02/10 00:14:08;;;;;;;43.87;23.20;;;-4.20;99.90;;;;;;5024901;28;20061;-82
2023/02/10 00:16:34;;;;;;;45.83;23.93;;;-4.20;99.90;;;;;;5025295;28;20083;-82
2023/02/10 00:19:00;;;;;;;49.03;23.67;;;-4.20;99.90;;;;;;5024304;28;20482;-82
2023/02/10 00:21:25;;;;;;;41.80;22.00;;;-4.20;99.90;;;;;;5024520;28;20036;-82
2023/02/10 00:23:51;;;;;;;42.83;21.43;;;-4.20;99.90;;;;;;5025273;28;20025;-82
2023/02/10 00:26:16;;;;;;;42.97;21.97;;;-4.20;99.90;;;;;;5024841;28;20371;-82
2023/02/10 00:28:42;;;;;;;43.13;20.93;;;-4.20;99.90;;;;;;5024262;28;20037;-82
2023/02/10 00:31:10;;;;;;;37.90;21.43;;;-4.20;99.90;;;;;;5023501;28;20030;-82
2023/02/10 00:33:35;;;;;;;43.10;22.17;;;-4.30;99.90;;;;;;5025142;28;20026;-82
2023/02/10 00:36:05;;;;;;;39.63;20.27;;;-4.30;99.90;;;;;;5023883;28;20082;-82
2023/02/10 00:38:31;;;;;;;38.47;20.53;;;-4.30;99.90;;;;;;5024966;28;20948;-82
2023/02/10 00:41:03;;;;;;;44.00;21.83;;;-4.30;99.90;;;;;;5023396;28;20036;-82
2023/02/10 00:43:28;;;;;;;47.20;23.43;;;-4.30;99.90;;;;;;5023071;28;20088;-82
2023/02/10 00:45:54;;;;;;;38.70;19.90;;;-4.40;99.90;;;;;;5024898;28;20040;-82
2023/02/10 00:48:19;;;;;;;39.53;19.27;;;-4.40;99.90;;;;;;5024987;28;20029;-82
2023/02/10 00:50:45;;;;;;;39.20;21.10;;;-4.40;99.90;;;;;;5024221;28;20516;-82
2023/02/10 00:53:10;;;;;;;37.07;20.00;;;-4.40;99.90;;;;;;5023416;28;20477;-81
2023/02/10 00:55:36;;;;;;;42.63;22.80;;;-4.40;99.90;;;;;;5024216;28;20080;-82
2023/02/10 00:58:01;;;;;;;43.17;21.90;;;-4.40;99.90;;;;;;5024340;28;20029;-81
2023/02/10 01:00:27;;;;;;;43.40;22.03;;;-4.40;99.90;;;;;;5024558;28;20032;-81
2023/02/10 01:02:52;;;;;;;36.80;20.33;;;-4.40;99.90;;;;;;5023665;28;20063;-82
2023/02/10 01:05:18;;;;;;;48.00;21.53;;;-4.40;99.90;;;;;;5023797;28;20083;-81
2023/02/10 01:07:43;;;;;;;40.60;20.60;;;-4.40;99.90;;;;;;5023032;28;20044;-81
2023/02/10 01:10:09;;;;;;;41.83;21.57;;;-4.50;99.90;;;;;;5022774;28;20045;-81
2023/02/10 01:12:34;;;;;;;45.50;22.03;;;-4.50;99.90;;;;;;5024828;28;20047;-82
2023/02/10 01:15:00;;;;;;;40.00;20.50;;;-4.50;99.90;;;;;;5047997;28;20103;-81
2023/02/10 01:17:25;;;;;;;40.63;20.90;;;-4.50;99.90;;;;;;5022155;28;20033;-81
2023/02/10 01:19:51;;;;;;;40.90;21.80;;;-4.60;99.90;;;;;;5023851;28;20033;-82
2023/02/10 01:22:16;;;;;;;35.73;21.27;;;-4.50;99.90;;;;;;5024219;28;20033;-82
2023/02/10 01:24:42;;;;;;;36.60;20.33;;;-4.60;99.90;;;;;;5024376;28;20030;-81
2023/02/10 01:27:07;;;;;;;39.60;21.20;;;-4.60;99.90;;;;;;5023542;28;20040;-81
2023/02/10 01:29:33;;;;;;;37.07;20.50;;;-4.60;99.90;;;;;;5023380;28;20034;-81
2023/02/10 01:31:58;;;;;;;39.40;20.97;;;-4.60;99.90;;;;;;5023819;28;20036;-81
2023/02/10 01:34:24;;;;;;;38.23;20.83;;;-4.60;99.90;;;;;;5023623;28;20032;-81
2023/02/10 01:36:49;;;;;;;42.83;22.63;;;-4.60;99.90;;;;;;5024515;28;20816;-81
2023/02/10 01:39:15;;;;;;;41.37;19.83;;;-4.60;99.90;;;;;;5023845;28;20098;-81
2023/02/10 01:41:41;;;;;;;36.40;20.07;;;-4.60;99.90;;;;;;5023556;28;20025;-81
2023/02/10 01:44:26;;;;;;;38.13;20.17;;;-4.60;99.90;;;;;;5022174;28;20167;-81
2023/02/10 01:46:53;;;;;;;39.55;18.33;;;-4.60;99.90;;;;;;5023632;28;20025;-81
2023/02/10 01:49:29;;;;;;;43.57;20.53;;;-4.60;99.90;;;;;;5024048;28;20390;-81
2023/02/10 01:52:06;;;;;;;39.07;19.33;;;-4.50;99.90;;;;;;5023230;28;20112;-81
2023/02/10 01:54:43;;;;;;;35.97;18.23;;;-4.50;99.90;;;;;;5025292;28;20030;-81
2023/02/10 01:57:08;;;;;;;37.53;18.30;;;-4.40;99.90;;;;;;5025586;28;20731;-81
2023/02/10 01:59:37;;;;;;;31.33;17.57;;;-4.40;99.90;;;;;;5026075;28;20036;-81
2023/02/10 02:02:06;;;;;;;33.17;18.10;;;-4.40;99.90;;;;;;5025974;28;20029;-81
2023/02/10 02:04:39;;;;;;;32.87;17.00;;;-4.40;99.90;;;;;;5025265;28;20074;-81
2023/02/10 02:07:05;;;;;;;34.10;17.50;;;-4.40;99.90;;;;;;5023892;28;20028;-81
2023/02/10 02:09:30;;;;;;;39.07;17.93;;;-4.30;99.90;;;;;;5023527;28;20053;-81
2023/02/10 02:12:08;;;;;;;33.37;17.30;;;-4.30;99.90;;;;;;5024138;28;20025;-81
2023/02/10 02:14:46;;;;;;;31.43;16.83;;;-4.30;99.90;;;;;;5026161;28;20098;-81
2023/02/10 02:17:36;;;;;;;36.93;17.43;;;-4.30;99.90;;;;;;5027173;28;20045;-81
2023/02/10 02:20:42;;;;;;;32.10;17.87;;;-4.30;99.90;;;;;;5023784;28;20025;-81
2023/02/10 02:23:30;;;;;;;28.45;16.65;;;-4.30;99.90;;;;;;5023754;28;20033;-81
2023/02/10 02:26:02;;;;;;;32.00;15.97;;;-4.30;99.90;;;;;;5024575;28;20033;-81
2023/02/10 02:28:51;;;;;;;29.93;16.60;;;-4.30;99.90;;;;;;5025839;28;20034;-81
2023/02/10 02:31:42;;;;;;;32.10;17.03;;;-4.30;99.90;;;;;;5027351;28;20032;-81
2023/02/10 02:34:14;;;;;;;31.33;16.40;;;-4.40;99.90;;;;;;5027037;28;20410;-81
2023/02/10 02:36:46;;;;;;;32.77;17.27;;;-4.40;99.90;;;;;;5025623;28;20049;-81
2023/02/10 02:39:11;;;;;;;29.83;17.17;;;-4.40;99.90;;;;;;5027503;28;20032;-81
2023/02/10 02:41:37;;;;;;;32.40;17.13;;;-4.40;99.90;;;;;;5027406;28;20017;-82
2023/02/10 02:44:05;;;;;;;32.33;17.53;;;-4.40;99.90;;;;;;5027137;28;20148;-81
2023/02/10 02:46:51;;;;;;;35.67;17.97;;;-4.40;99.90;;;;;;5027021;28;20036;-81
2023/02/10 02:49:34;;;;;;;31.90;17.10;;;-4.50;99.90;;;;;;5025700;28;20088;-82
2023/02/10 02:52:11;;;;;;;30.77;16.07;;;-4.50;99.90;;;;;;5027143;28;20079;-81
2023/02/10 02:54:42;;;;;;;35.77;17.33;;;-4.50;99.90;;;;;;5027195;28;20022;-81
2023/02/10 02:57:19;;;;;;;37.03;17.80;;;-4.50;99.90;;;;;;5025270;28;20041;-82
2023/02/10 02:59:57;;;;;;;36.20;17.77;;;-4.40;99.90;;;;;;5026353;28;20422;-81
2023/02/10 03:02:23;;;;;;;33.13;16.93;;;-4.40;99.90;;;;;;5025178;28;20037;-82
2023/02/10 03:04:48;;;;;;;34.07;18.40;;;-4.50;99.90;;;;;;5025598;28;20053;-82
2023/02/10 03:07:14;;;;;;;33.87;18.70;;;-4.40;99.90;;;;;;5026837;28;20095;-81
2023/02/10 03:09:41;;;;;;;35.80;18.30;;;-4.40;99.90;;;;;;5025744;28;20144;-81
2023/02/10 03:12:07;;;;;;;36.10;17.20;;;-4.40;99.90;;;;;;5025927;28;20034;-81
2023/02/10 03:14:32;;;;;;;38.10;19.63;;;-4.40;99.90;;;;;;5026178;28;20095;-81
2023/02/10 03:16:58;;;;;;;34.97;18.87;;;-4.40;99.90;;;;;;5026773;28;20022;-81
2023/02/10 03:19:24;;;;;;;34.77;18.20;;;-4.40;99.90;;;;;;5025546;28;20025;-81
2023/02/10 03:21:49;;;;;;;35.97;18.57;;;-4.40;99.90;;;;;;5026640;28;20128;-81
2023/02/10 03:24:16;;;;;;;37.63;18.37;;;-4.40;99.90;;;;;;5026221;28;20068;-81
2023/02/10 03:26:42;;;;;;;36.90;18.13;;;-4.40;99.90;;;;;;5023987;28;20047;-81
2023/02/10 03:29:09;;;;;;;35.43;18.80;;;-4.40;99.90;;;;;;5024505;28;20505;-81
2023/02/10 03:31:35;;;;;;;36.87;19.20;;;-4.40;99.90;;;;;;5026713;28;20021;-81
2023/02/10 03:34:00;;;;;;;36.77;18.80;;;-4.40;99.90;;;;;;5024682;28;20040;-81
2023/02/10 03:36:26;;;;;;;38.50;17.97;;;-4.40;99.90;;;;;;5025746;28;20082;-81
2023/02/10 03:38:51;;;;;;;37.20;19.43;;;-4.40;99.90;;;;;;5025792;28;20144;-81
2023/02/10 03:41:17;;;;;;;36.53;18.40;;;-4.40;99.90;;;;;;5024285;28;20033;-81
2023/02/10 03:43:43;;;;;;;33.97;18.83;;;-4.40;99.90;;;;;;5026208;28;20029;-81
2023/02/10 03:46:10;;;;;;;35.37;18.10;;;-4.40;99.90;;;;;;5026118;28;20113;-81
2023/02/10 03:48:36;;;;;;;35.27;17.53;;;-4.40;99.90;;;;;;5025546;28;20029;-81
2023/02/10 03:51:03;;;;;;;35.80;17.17;;;-4.40;99.90;;;;;;5025608;28;20022;-81
2023/02/10 03:53:30;;;;;;;32.97;17.73;;;-4.40;99.90;;;;;;5025653;28;20141;-81
2023/02/10 03:55:55;;;;;;;32.10;16.97;;;-4.40;99.90;;;;;;5026392;28;20025;-81
2023/02/10 03:58:21;;;;;;;34.70;16.80;;;-4.40;99.90;;;;;;5025497;28;20045;-81
2023/02/10 04:00:47;;;;;;;35.20;17.30;;;-4.30;99.90;;;;;;5024179;28;20143;-81
2023/02/10 04:03:13;;;;;;;31.10;17.73;;;-4.30;99.90;;;;;;5025310;28;20050;-81
2023/02/10 04:05:39;;;;;;;33.87;16.80;;;-4.30;99.90;;;;;;5025141;28;20117;-81
2023/02/10 04:08:08;;;;;;;30.03;15.90;;;-4.20;99.90;;;;;;5025024;28;20034;-81
2023/02/10 04:10:33;;;;;;;30.00;15.53;;;-4.20;99.90;;;;;;5024476;28;20376;-81
2023/02/10 04:12:59;;;;;;;27.20;15.20;;;-4.20;99.90;;;;;;5024434;28;20053;-81
2023/02/10 04:15:25;;;;;;;31.53;16.33;;;-4.20;99.90;;;;;;5024663;28;20037;-81
2023/02/10 04:17:50;;;;;;;34.03;16.70;;;-4.20;99.90;;;;;;5023861;28;20029;-81
2023/02/10 04:20:16;;;;;;;38.50;17.87;;;-4.20;99.90;;;;;;5025224;28;20025;-81
2023/02/10 04:22:42;;;;;;;34.87;16.07;;;-4.20;99.90;;;;;;5025471;28;20036;-81
2023/02/10 04:25:08;;;;;;;31.97;16.50;;;-4.20;99.90;;;;;;5024697;28;20084;-82
2023/02/10 04:27:34;;;;;;;31.17;16.47;;;-4.20;99.90;;;;;;5024456;28;21407;-81
2023/02/10 04:30:00;;;;;;;28.37;15.33;;;-4.20;99.90;;;;;;5023442;28;20590;-81
2023/02/10 04:32:25;;;;;;;33.57;16.33;;;-4.30;99.90;;;;;;5024919;28;20160;-81
2023/02/10 04:34:51;;;;;;;34.20;16.27;;;-4.30;99.90;;;;;;5025200;28;20029;-81
2023/02/10 04:37:17;;;;;;;31.77;16.50;;;-4.40;99.90;;;;;;5024950;28;20099;-81
2023/02/10 04:39:42;;;;;;;29.83;15.27;;;-4.40;99.90;;;;;;5024602;28;21503;-81
2023/02/10 04:42:08;;;;;;;30.33;14.87;;;-4.40;99.90;;;;;;5024544;28;20071;-81
2023/02/10 04:44:34;;;;;;;26.43;14.50;;;-4.50;99.90;;;;;;5025129;28;20474;-81
2023/02/10 04:46:59;;;;;;;30.33;16.40;;;-4.50;99.90;;;;;;5031336;28;20128;-81
2023/02/10 04:49:25;;;;;;;28.47;14.90;;;-4.60;99.90;;;;;;5030636;28;20018;-81
2023/02/10 04:51:51;;;;;;;35.20;16.00;;;-4.60;99.90;;;;;;5028210;28;20032;-81
2023/02/10 04:54:16;;;;;;;33.30;15.43;;;-4.60;99.90;;;;;;5032259;28;20033;-81
2023/02/10 04:56:42;;;;;;;32.77;16.20;;;-4.70;99.90;;;;;;5030686;28;20017;-81
2023/02/10 04:59:08;;;;;;;25.03;13.93;;;-4.70;99.90;;;;;;5030009;28;21024;-81
2023/02/10 05:01:33;;;;;;;26.93;14.17;;;-4.80;99.90;;;;;;5031493;28;20029;-81
2023/02/10 05:03:59;;;;;;;32.30;14.87;;;-4.80;99.90;;;;;;5027724;28;20029;-81
2023/02/10 05:06:25;;;;;;;26.43;15.10;;;-4.80;99.90;;;;;;5025259;28;20032;-81
2023/02/10 05:08:50;;;;;;;28.70;15.60;;;-4.80;99.90;;;;;;5023831;28;20128;-83
2023/02/10 05:11:17;;;;;;;28.87;15.23;;;-4.90;99.90;;;;;;5025379;28;20029;-82
2023/02/10 05:13:43;;;;;;;28.37;14.87;;;-4.90;99.90;;;;;;5025473;28;20513;-82
2023/02/10 05:16:11;;;;;;;30.33;15.87;;;-4.90;99.90;;;;;;5024306;28;20021;-82
2023/02/10 05:18:39;;;;;;;29.50;15.33;;;-4.90;99.90;;;;;;5024102;28;20654;-82
2023/02/10 05:21:06;;;;;;;28.90;15.20;;;-4.90;99.90;;;;;;5024101;28;21363;-83
2023/02/10 05:23:34;;;;;;;28.80;15.77;;;-5.00;99.90;;;;;;5025540;28;20038;-83
2023/02/10 05:26:00;;;;;;;29.57;15.53;;;-5.00;99.90;;;;;;5024854;28;20055;-83
2023/02/10 05:28:28;;;;;;;26.17;14.87;;;-5.00;99.90;;;;;;5021937;28;20081;-82
2023/02/10 05:30:53;;;;;;;28.40;14.27;;;-5.00;99.90;;;;;;5024123;28;20118;-83
2023/02/10 05:33:19;;;;;;;25.43;14.93;;;-5.00;99.90;;;;;;5022118;28;20029;-82
2023/02/10 05:35:45;;;;;;;30.27;15.80;;;-5.00;99.90;;;;;;5023837;28;20108;-82
2023/02/10 05:38:10;;;;;;;28.90;15.37;;;-5.10;99.90;;;;;;5024122;28;20025;-82
2023/02/10 05:40:36;;;;;;;25.23;15.10;;;-5.10;99.90;;;;;;5024110;28;20049;-83
2023/02/10 05:43:02;;;;;;;25.57;14.87;;;-5.10;99.90;;;;;;5023224;28;20034;-82
2023/02/10 05:45:28;;;;;;;30.33;15.23;;;-5.10;99.90;;;;;;5023508;28;20040;-82
2023/02/10 05:47:53;;;;;;;27.97;15.33;;;-5.10;99.90;;;;;;5023583;28;20029;-82
2023/02/10 05:50:19;;;;;;;29.07;15.17;;;-5.10;99.90;;;;;;5021236;28;20029;-82
2023/02/10 05:52:44;;;;;;;31.83;16.20;;;-5.10;99.90;;;;;;5021642;28;20094;-83
2023/02/10 05:55:10;;;;;;;30.20;15.83;;;-5.10;99.90;;;;;;5022921;28;20035;-82
2023/02/10 05:57:36;;;;;;;29.73;16.13;;;-5.10;99.90;;;;;;5021900;28;20467;-82
2023/02/10 06:00:03;;;;;;;33.27;15.87;;;-5.10;99.90;;;;;;5023236;28;20022;-82
2023/02/10 06:02:29;;;;;;;30.27;15.60;;;-5.10;99.90;;;;;;5023108;28;20036;-82
2023/02/10 06:04:55;;;;;;;24.30;13.97;;;-5.20;99.90;;;;;;5023496;28;20355;-82
2023/02/10 06:07:20;;;;;;;26.57;15.00;;;-5.20;99.90;;;;;;5026118;28;20028;-82
2023/02/10 06:09:46;;;;;;;29.60;15.13;;;-5.20;99.90;;;;;;5023075;28;20068;-82
2023/02/10 06:12:11;;;;;;;28.37;14.67;;;-5.20;99.90;;;;;;5023425;28;20025;-82
2023/02/10 06:14:37;;;;;;;27.20;13.67;;;-5.20;99.90;;;;;;5022952;28;20116;-82
2023/02/10 06:17:08;;;;;;;28.33;13.80;;;-5.20;99.90;;;;;;5023116;28;20017;-82
2023/02/10 06:19:40;;;;;;;30.23;13.73;;;-5.20;99.90;;;;;;5023348;28;20064;-82
2023/02/10 06:22:07;;;;;;;26.70;13.17;;;-5.20;99.90;;;;;;5023484;28;20158;-82
2023/02/10 06:24:33;;;;;;;25.00;13.23;;;-5.20;99.90;;;;;;5021455;28;20042;-82
2023/02/10 06:26:58;;;;;;;26.87;13.43;;;-5.20;99.90;;;;;;5021355;28;20039;-82
2023/02/10 06:29:24;;;;;;;24.17;12.70;;;-5.10;99.90;;;;;;5024488;28;20033;-82
2023/02/10 06:31:49;;;;;;;24.57;12.97;;;-5.10;99.90;;;;;;5023316;28;20036;-83
2023/02/10 06:34:16;;;;;;;24.97;12.93;;;-5.10;99.90;;;;;;5028496;28;20025;-80
2023/02/10 06:36:44;;;;;;;24.40;12.53;;;-5.10;99.90;;;;;;5025343;28;20029;-82
2023/02/10 06:39:10;;;;;;;23.43;13.27;;;-5.00;99.90;;;;;;5022958;28;20030;-83
2023/02/10 06:41:35;;;;;;;23.03;12.93;;;-5.00;99.90;;;;;;5021676;28;20029;-82
2023/02/10 06:44:01;;;;;;;22.50;13.70;;;-4.90;99.90;;;;;;5020474;28;20033;-82
2023/02/10 06:46:27;;;;;;;24.73;14.17;;;-4.90;99.90;;;;;;5023261;28;20071;-82
2023/02/10 06:48:52;;;;;;;24.87;12.37;;;-4.80;99.90;;;;;;5021211;28;20078;-82
2023/02/10 06:51:18;;;;;;;21.70;12.13;;;-4.80;99.90;;;;;;5022361;28;20029;-82
2023/02/10 06:53:44;;;;;;;26.43;13.37;;;-4.80;99.90;;;;;;5021729;28;20033;-82
2023/02/10 06:56:11;;;;;;;26.10;13.73;;;-4.80;99.90;;;;;;5025404;28;20045;-84
2023/02/10 06:58:36;;;;;;;25.10;13.23;;;-4.80;99.90;;;;;;5022087;28;20735;-83
2023/02/10 07:01:15;;;;;;;23.97;13.47;;;-4.80;99.90;;;;;;5021964;28;20036;-83
2023/02/10 07:03:40;;;;;;;25.40;13.43;;;-4.80;99.90;;;;;;5022607;28;20026;-83
2023/02/10 07:06:06;;;;;;;21.67;12.43;;;-4.80;99.90;;;;;;5029229;28;20146;-84
2023/02/10 07:08:32;;;;;;;26.20;13.67;;;-4.80;99.90;;;;;;5023629;28;20505;-83
2023/02/10 07:10:58;;;;;;;29.30;14.60;;;-4.70;99.90;;;;;;5021432;28;20107;-83
2023/02/10 07:13:23;;;;;;;22.90;12.90;;;-4.70;99.90;;;;;;5043377;28;20038;-78
2023/02/10 07:15:49;;;;;;;26.87;12.20;;;-4.70;99.90;;;;;;5046047;28;20837;-81
2023/02/10 07:18:14;;;;;;;25.43;13.70;;;-4.60;99.90;;;;;;5028319;28;20053;-81
2023/02/10 07:20:40;;;;;;;27.13;14.20;;;-4.60;99.90;;;;;;5027755;28;20116;-81
2023/02/10 07:23:08;;;;;;;24.37;13.33;;;-4.60;99.90;;;;;;5024878;28;20421;-83
2023/02/10 07:25:33;;;;;;;24.40;12.93;;;-4.50;99.90;;;;;;5029469;28;20029;-82
2023/02/10 07:27:59;;;;;;;26.17;12.90;;;-4.40;99.90;;;;;;5026248;28;20029;-82
2023/02/10 07:30:27;;;;;;;25.30;12.93;;;-4.40;99.90;;;;;;5028615;28;21477;-82
2023/02/10 07:32:53;;;;;;;24.80;12.73;;;-4.30;99.90;;;;;;5026361;28;20382;-82
2023/02/10 07:35:18;;;;;;;28.77;14.43;;;-4.30;99.90;;;;;;5025070;28;20030;-82
2023/02/10 07:37:51;;;;;;;25.60;14.33;;;-4.20;99.90;;;;;;5028790;28;20027;-82
2023/02/10 07:40:17;;;;;;;30.53;12.53;;;-4.20;99.90;;;;;;5026710;28;20375;-82
2023/02/10 07:42:45;;;;;;;25.60;12.43;;;-4.10;99.90;;;;;;5028660;28;20029;-82
2023/02/10 07:45:10;;;;;;;24.60;12.43;;;-4.00;99.90;;;;;;5027613;28;20034;-82
2023/02/10 07:47:36;;;;;;;21.77;11.47;;;-4.00;99.90;;;;;;5029280;28;20036;-82
2023/02/10 07:50:02;;;;;;;21.40;11.50;;;-3.90;99.90;;;;;;5028265;28;20026;-82
2023/02/10 07:52:28;;;;;;;21.40;11.80;;;-3.80;99.90;;;;;;5026744;28;20051;-82
2023/02/10 07:54:55;;;;;;;23.73;12.20;;;-3.80;99.90;;;;;;5027956;28;20356;-82
2023/02/10 07:57:21;;;;;;;25.87;13.67;;;-3.70;99.90;;;;;;5027300;28;20025;-70
2023/02/10 07:59:46;;;;;;;20.40;11.90;;;-3.60;99.90;;;;;;5030648;28;20025;-82
2023/02/10 08:02:12;;;;;;;22.90;12.60;;;-3.50;99.90;;;;;;5026925;28;20025;-81
2023/02/10 08:04:38;;;;;;;22.50;12.37;;;-3.40;99.90;;;;;;5028128;28;20179;-82
2023/02/10 08:07:03;;;;;;;25.80;12.40;;;-3.30;99.90;;;;;;5027844;28;20065;-81
2023/02/10 08:09:29;;;;;;;24.87;12.50;;;-3.20;99.90;;;;;;5025282;28;20048;-81
2023/02/10 08:11:54;;;;;;;24.77;11.60;;;-3.10;99.90;;;;;;5028566;28;20017;-81
2023/02/10 08:14:20;;;;;;;23.87;13.27;;;-3.00;99.90;;;;;;5027690;28;20049;-82
2023/02/10 08:16:46;;;;;;;20.47;11.73;;;-2.80;99.90;;;;;;5026145;28;20052;-81
2023/02/10 08:19:12;;;;;;;21.63;12.10;;;-2.70;99.90;;;;;;5026449;28;20486;-81
2023/02/10 08:21:37;;;;;;;22.57;11.13;;;-2.60;99.90;;;;;;5028366;28;20018;-81
2023/02/10 08:24:03;;;;;;;24.40;11.53;;;-2.40;99.90;;;;;;5025874;28;20041;-81
2023/02/10 08:26:28;;;;;;;20.07;11.67;;;-2.30;99.90;;;;;;5027021;28;20083;-82
2023/02/10 08:28:54;;;;;;;20.97;10.47;;;-2.20;99.90;;;;;;5027437;28;20025;-81
2023/02/10 08:31:21;;;;;;;24.03;12.47;;;-2.00;99.90;;;;;;5026934;28;20478;-81
2023/02/10 08:33:47;;;;;;;20.17;11.63;;;-1.90;99.90;;;;;;5025884;28;20025;-81
2023/02/10 08:36:17;;;;;;;23.00;11.63;;;-1.80;99.90;;;;;;5026721;28;20032;-81
2023/02/10 08:38:43;;;;;;;20.77;11.80;;;-1.70;99.90;;;;;;5028505;28;20029;-81
2023/02/10 08:41:09;;;;;;;21.33;12.30;;;-1.50;99.90;;;;;;5030539;28;20028;-81
2023/02/10 08:43:34;;;;;;;22.30;11.77;;;-1.40;99.90;;;;;;5033284;28;20499;-81
2023/02/10 08:46:01;;;;;;;20.87;11.50;;;-1.20;99.90;;;;;;5031898;28;20044;-81
2023/02/10 08:48:27;;;;;;;27.17;12.37;;;-1.10;99.90;;;;;;5030483;28;20028;-81
2023/02/10 08:50:53;;;;;;;20.50;11.43;;;-0.90;99.90;;;;;;5032827;28;20026;-81
2023/02/10 08:53:20;;;;;;;19.43;11.20;;;-0.80;99.90;;;;;;5033506;28;20113;-81
2023/02/10 08:55:57;;;;;;;22.00;11.33;;;-0.70;99.90;;;;;;5032021;28;20079;-81
2023/02/10 08:58:23;;;;;;;23.13;11.97;;;-0.40;99.90;;;;;;5031105;28;20025;-81
2023/02/10 09:00:48;;;;;;;19.03;11.13;;;-0.30;99.90;;;;;;5030346;28;20025;-81
2023/02/10 09:03:14;;;;;;;22.57;11.47;;;-0.30;99.90;;;;;;5029972;28;20462;-81
2023/02/10 09:05:40;;;;;;;22.27;12.43;;;-0.20;99.90;;;;;;5031835;28;20040;-77
2023/02/10 09:08:08;;;;;;;21.73;12.93;;;-0.10;99.90;;;;;;5039903;28;20028;-77
2023/02/10 09:10:34;;;;;;;22.57;12.60;;;0.00;99.90;;;;;;5035058;28;20049;-77
2023/02/10 09:12:59;;;;;;;28.83;13.10;;;0.10;99.90;;;;;;5034840;28;20025;-77
2023/02/10 09:15:25;;;;;;;27.80;14.23;;;0.30;99.90;;;;;;5036727;28;20044;-77
2023/02/10 09:17:50;;;;;;;28.87;13.10;;;0.30;99.90;;;;;;5045967;28;20024;-77
2023/02/10 09:20:16;;;;;;;22.43;13.83;;;0.40;99.90;;;;;;5043459;28;20033;-77
2023/02/10 09:22:42;;;;;;;26.13;14.83;;;0.50;99.90;;;;;;5040893;28;20032;-77
2023/02/10 09:25:08;;;;;;;26.23;13.57;;;0.60;99.90;;;;;;5039998;28;20025;-77
2023/02/10 09:27:33;;;;;;;33.07;15.10;;;0.70;99.90;;;;;;5033473;28;20033;-77
2023/02/10 09:30:00;;;;;;;24.83;15.53;;;0.70;99.90;;;;;;5040708;28;20108;-77
2023/02/10 09:32:26;;;;;;;26.30;14.43;;;0.70;99.90;;;;;;5037220;28;20143;-77
2023/02/10 09:34:51;;;;;;;25.27;15.37;;;0.70;99.90;;;;;;5034869;28;20067;-77
2023/02/10 09:37:17;;;;;;;25.17;14.90;;;0.70;99.90;;;;;;5044781;28;20024;-78
2023/02/10 09:39:42;;;;;;;30.20;15.50;;;0.80;99.90;;;;;;5039735;28;20045;-77
2023/02/10 09:42:45;;;;;;;28.23;16.30;;;0.80;99.90;;;;;;5041709;28;20528;-78
2023/02/10 09:45:17;;;;;;;28.00;16.03;;;0.80;99.90;;;;;;5034354;28;20137;-78
2023/02/10 09:47:49;;;;;;;27.20;15.70;;;0.90;99.90;;;;;;5044910;28;20431;-78
2023/02/10 09:50:36;;;;;;;30.10;16.07;;;0.90;99.90;;;;;;5038320;28;20478;-78
2023/02/10 09:53:21;;;;;;;27.73;15.67;;;1.00;99.90;;;;;;5038221;28;20032;-78
2023/02/10 09:55:50;;;;;;;28.27;15.70;;;1.10;99.90;;;;;;5041014;28;20405;-78
2023/02/10 09:58:35;;;;;;;32.10;15.33;;;1.10;99.90;;;;;;5035863;28;20025;-78
2023/02/10 10:01:16;;;;;;;29.77;17.05;;;1.10;99.90;;;;;;5036379;28;20171;-78
2023/02/10 10:03:48;;;;;;;30.27;16.70;;;1.20;99.90;;;;;;5041209;28;20026;-78
2023/02/10 10:06:23;;;;;;;29.10;15.60;;;1.20;99.90;;;;;;5038835;28;20021;-78
2023/02/10 10:09:00;;;;;;;30.35;16.45;;;1.30;99.90;;;;;;5040577;28;20028;-78
2023/02/10 10:11:36;;;;;;;28.13;16.27;;;1.40;99.90;;;;;;5040278;28;20029;-78
2023/02/10 10:14:02;;;;;;;30.00;15.93;;;1.50;99.90;;;;;;5032457;28;20025;-78
2023/02/10 10:17:15;;;;;;;30.17;16.50;;;1.50;99.90;;;;;;5040988;28;20029;-78
2023/02/10 10:20:12;;;;;;;34.10;17.97;;;1.60;99.90;;;;;;4998402;28;20160;-78
2023/02/10 10:23:04;;;;;;;29.60;18.20;;;1.80;99.90;;;;;;5040244;28;20029;-78
2023/02/10 10:26:04;;;;;;;29.27;17.60;;;1.80;99.90;;;;;;5033247;28;20029;-78
2023/02/10 10:28:57;;;;;;;32.20;19.13;;;1.90;99.90;;;;;;5039143;28;20029;-78
2023/02/10 10:31:39;;;;;;;34.63;19.83;;;2.00;99.90;;;;;;5033252;28;20034;-78
2023/02/10 10:34:07;;;;;;;35.40;20.23;;;2.10;99.90;;;;;;5033398;28;20105;-79
2023/02/10 10:36:36;;;;;;;39.13;21.47;;;2.20;99.90;;;;;;5027163;28;20025;-79
2023/02/10 10:39:12;;;;;;;37.27;21.07;;;2.30;99.90;;;;;;5031117;28;20033;-79
2023/02/10 10:41:39;;;;;;;36.30;21.40;;;2.50;99.90;;;;;;5032862;28;20362;-79
2023/02/10 10:44:05;;;;;;;33.47;20.33;;;2.50;99.90;;;;;;5035041;28;20026;-80
2023/02/10 10:46:46;;;;;;;35.97;19.63;;;2.60;99.90;;;;;;5031954;28;20032;-79
2023/02/10 10:49:12;;;;;;;37.93;20.67;;;2.70;99.90;;;;;;5037319;28;20025;-79
2023/02/10 10:51:38;;;;;;;34.40;20.60;;;2.70;99.90;;;;;;5036677;28;20033;-79
2023/02/10 10:54:09;;;;;;;32.57;20.03;;;2.70;99.90;;;;;;5044728;28;20021;-79
2023/02/10 10:57:01;;;;;;;34.87;21.63;;;2.90;99.90;;;;;;5035697;28;20342;-79
2023/02/10 10:59:41;;;;;;;37.97;21.20;;;2.90;99.90;;;;;;5035481;28;20029;-79
2023/02/10 11:02:18;;;;;;;38.37;22.03;;;3.00;99.90;;;;;;5049047;28;20015;-79
2023/02/10 11:04:45;;;;;;;36.00;20.40;;;3.10;99.90;;;;;;5025470;28;20021;-79
2023/02/10 11:07:17;;;;;;;36.30;21.27;;;3.20;99.90;;;;;;5045498;28;20021;-79
2023/02/10 11:09:50;;;;;;;40.57;22.33;;;3.30;99.90;;;;;;5051915;28;20120;-79
2023/02/10 11:12:19;;;;;;;35.90;20.37;;;3.30;99.90;;;;;;5035440;28;20064;-79
2023/02/10 11:14:48;;;;;;;41.27;25.73;;;3.30;99.90;;;;;;5036839;28;20026;-79
2023/02/10 11:17:28;;;;;;;62.50;31.40;;;3.30;99.90;;;;;;5042671;28;20017;-79
2023/02/10 11:19:57;;;;;;;42.63;24.83;;;3.30;99.90;;;;;;5039581;28;20411;-79
2023/02/10 11:22:23;;;;;;;44.53;24.13;;;3.40;99.90;;;;;;5043022;28;20021;-79
2023/02/10 11:24:52;;;;;;;47.00;26.23;;;3.50;99.90;;;;;;5041609;28;20134;-79
2023/02/10 11:27:18;;;;;;;34.90;21.63;;;3.70;99.90;;;;;;5044299;28;20029;-79
2023/02/10 11:29:53;;;;;;;36.63;21.37;;;3.90;99.90;;;;;;5038364;28;20025;-79
2023/02/10 11:32:34;;;;;;;36.17;20.93;;;4.00;99.90;;;;;;5035035;28;20061;-79
2023/02/10 11:35:03;;;;;;;35.03;22.23;;;4.10;99.90;;;;;;5047983;28;20436;-79
2023/02/10 11:37:31;;;;;;;35.97;22.87;;;4.30;99.90;;;;;;5036005;28;20027;-79
2023/02/10 11:39:59;;;;;;;35.77;21.40;;;4.40;99.90;;;;;;5040365;28;20362;-79
2023/02/10 11:42:28;;;;;;;34.17;21.27;;;4.50;99.90;;;;;;5043483;28;20018;-79
2023/02/10 11:45:01;;;;;;;36.63;21.63;;;4.50;99.90;;;;;;5042270;28;20021;-79
2023/02/10 11:47:29;;;;;;;35.23;20.47;;;4.60;99.90;;;;;;5041964;28;20025;-80
2023/02/10 11:49:55;;;;;;;33.97;21.73;;;4.60;99.90;;;;;;5043972;28;20036;-79
2023/02/10 11:52:23;;;;;;;36.10;21.47;;;4.60;99.90;;;;;;5049254;28;20029;-79
2023/02/10 11:54:51;;;;;;;36.63;21.80;;;4.70;99.90;;;;;;5042725;28;20022;-79
2023/02/10 12:00:23;;;;;;;36.60;21.70;;;4.60;99.90;;;;;;5048849;28;20032;-79
2023/02/10 12:02:56;;;;;;;33.47;20.60;;;4.50;99.90;;;;;;5038212;28;20025;-79
2023/02/10 12:05:28;;;;;;;35.77;21.43;;;4.60;99.90;;;;;;5037237;28;20069;-79
2023/02/10 12:08:14;;;;;;;33.30;20.10;;;4.80;99.90;;;;;;5034348;28;20480;-79
2023/02/10 12:10:55;;;;;;;36.30;20.40;;;5.00;99.90;;;;;;5035579;28;20068;-79
2023/02/10 12:13:48;;;;;;;32.03;19.90;;;5.20;99.90;;;;;;5034178;28;20053;-79
2023/02/10 12:16:32;;;;;;;33.33;21.10;;;5.30;99.90;;;;;;5022162;28;20029;-83
2023/02/10 12:19:14;;;;;;;38.50;20.10;;;5.40;99.90;;;;;;5024775;28;20118;-83
2023/02/10 12:21:49;;;;;;;29.13;19.90;;;5.60;99.90;;;;;;5023222;28;20053;-83
2023/02/10 12:24:33;;;;;;;35.38;20.70;;;5.60;99.90;;;;;;5023546;28;20175;-83
2023/02/10 12:27:21;;;;;;;34.43;20.27;;;5.60;99.90;;;;;;5020212;28;20048;-83
2023/02/10 12:30:04;;;;;;;34.87;21.10;;;6.00;99.90;;;;;;5023308;28;20104;-83
2023/02/10 12:32:54;;;;;;;34.10;20.17;;;6.00;99.90;;;;;;5023995;28;20029;-83
2023/02/10 12:35:38;;;;;;;35.23;21.90;;;6.00;99.90;;;;;;5020999;28;20596;-83
2023/02/10 12:38:28;;;;;;;36.53;21.33;;;6.10;99.90;;;;;;5024622;28;20021;-83
2023/02/10 12:41:22;;;;;;;33.03;21.13;;;5.90;99.90;;;;;;5021956;28;20393;-83
2023/02/10 12:43:58;;;;;;;33.50;20.37;;;6.10;99.90;;;;;;5020080;28;20411;-83
2023/02/10 12:46:41;;;;;;;36.10;20.27;;;6.10;99.90;;;;;;5020747;28;20040;-83